createdAt,value
2022-12-17T00:03:52.372Z,25.10
2022-12-17T00:09:12.880Z,29.77
2022-12-17T00:14:36.864Z,29.50
2022-12-17T00:19:58.680Z,26.47
2022-12-17T00:25:19.154Z,28.00
2022-12-17T00:30:40.548Z,26.03
2022-12-17T00:36:02.359Z,26.90
2022-12-17T00:41:26.066Z,28.80
2022-12-17T00:46:48.602Z,30.07
2022-12-17T00:52:16.113Z,25.60
2022-12-17T00:57:36.965Z,27.37
2022-12-17T01:02:57.465Z,25.60
2022-12-17T01:08:27.088Z,26.23
2022-12-17T01:13:47.692Z,26.87
2022-12-17T01:19:08.234Z,26.07
2022-12-17T01:24:30.699Z,28.67
2022-12-17T01:30:00.410Z,29.57
2022-12-17T01:35:20.980Z,29.40
2022-12-17T01:40:43.038Z,27.77
2022-12-17T01:46:08.295Z,27.37
2022-12-17T01:51:29.091Z,27.17
2022-12-17T01:56:51.720Z,27.20
2022-12-17T02:02:12.588Z,26.70
2022-12-17T02:07:48.066Z,28.70
2022-12-17T02:13:14.625Z,25.73
2022-12-17T02:18:39.802Z,25.70
2022-12-17T02:24:09.606Z,25.87
2022-12-17T02:29:32.980Z,27.17
2022-12-17T02:35:02.634Z,25.33
2022-12-17T02:40:25.000Z,27.13
2022-12-17T02:45:47.510Z,27.03
2022-12-17T02:51:10.227Z,25.10
2022-12-17T02:56:30.874Z,25.17
2022-12-17T03:01:54.428Z,30.50
2022-12-17T03:07:14.947Z,27.40
2022-12-17T03:12:36.944Z,28.87
2022-12-17T03:17:59.129Z,36.33
2022-12-17T03:23:23.325Z,29.07
2022-12-17T03:28:43.646Z,35.47
2022-12-17T03:34:05.657Z,33.77
2022-12-17T03:39:26.344Z,28.63
2022-12-17T03:44:46.857Z,28.17
2022-12-17T03:50:08.866Z,29.83
2022-12-17T03:55:29.401Z,26.20
2022-12-17T04:00:49.909Z,27.60
2022-12-17T04:06:11.782Z,29.17
2022-12-17T04:11:32.252Z,28.13
2022-12-17T04:16:52.869Z,28.93
2022-12-17T04:22:14.506Z,25.80
2022-12-17T04:27:40.369Z,29.57
2022-12-17T04:33:00.983Z,31.70
2022-12-17T04:38:23.147Z,30.70
2022-12-17T04:43:44.002Z,30.50
2022-12-17T04:49:04.455Z,29.27
2022-12-17T04:54:26.486Z,28.40
2022-12-17T04:59:47.129Z,29.87
2022-12-17T05:05:07.534Z,29.60
2022-12-17T05:10:29.340Z,30.10
2022-12-17T05:15:53.248Z,30.30
2022-12-17T05:21:14.115Z,30.33
2022-12-17T05:26:38.561Z,31.30
2022-12-17T05:31:59.350Z,32.03
2022-12-17T05:37:20.254Z,30.57
2022-12-17T05:42:42.209Z,30.50
2022-12-17T05:48:02.624Z,32.40
2022-12-17T05:53:24.152Z,32.13
2022-12-17T05:58:46.106Z,36.37
2022-12-17T06:04:06.788Z,32.30
2022-12-17T06:09:30.506Z,33.40
2022-12-17T06:14:52.245Z,35.27
2022-12-17T06:20:12.934Z,31.67
2022-12-17T06:25:30.010Z,31.60
2022-12-17T06:30:52.094Z,32.97
2022-12-17T06:36:21.353Z,31.33
2022-12-17T06:41:46.445Z,31.57
2022-12-17T06:47:08.452Z,33.93
2022-12-17T06:52:29.374Z,31.13
2022-12-17T06:57:50.612Z,32.57
2022-12-17T07:03:15.346Z,30.80
2022-12-17T07:08:47.607Z,31.37
2022-12-17T07:14:08.532Z,31.87
2022-12-17T07:19:30.741Z,30.53
2022-12-17T07:25:02.840Z,29.00
2022-12-17T07:30:27.318Z,33.17
2022-12-17T07:35:48.993Z,31.17
2022-12-17T07:41:09.695Z,31.80
2022-12-17T07:46:30.113Z,29.00
2022-12-17T07:51:52.246Z,29.77
2022-12-17T07:57:12.679Z,29.67
2022-12-17T08:02:35.089Z,30.97
2022-12-17T08:07:56.970Z,30.13
2022-12-17T08:13:19.790Z,29.47
2022-12-17T08:18:40.445Z,31.13
2022-12-17T08:24:02.742Z,31.97
2022-12-17T08:29:23.225Z,29.47
2022-12-17T08:34:46.423Z,29.23
2022-12-17T08:40:08.264Z,29.53
2022-12-17T08:45:31.891Z,28.40
2022-12-17T08:50:52.961Z,29.00
2022-12-17T08:56:15.098Z,29.27
2022-12-17T09:01:35.695Z,28.67
2022-12-17T09:06:56.120Z,29.10
2022-12-17T09:12:18.102Z,29.07
2022-12-17T09:17:40.951Z,28.67
2022-12-17T09:23:06.129Z,29.63
2022-12-17T09:28:28.423Z,30.07
2022-12-17T09:33:49.265Z,27.60
2022-12-17T09:39:10.370Z,28.17
2022-12-17T09:44:41.658Z,29.40
2022-12-17T09:50:02.407Z,28.33
2022-12-17T09:55:36.337Z,29.47
2022-12-17T10:01:01.051Z,31.20
2022-12-17T10:06:27.268Z,31.20
2022-12-17T10:11:49.426Z,32.50
2022-12-17T10:17:12.224Z,31.47
2022-12-17T10:22:38.944Z,32.43
2022-12-17T10:28:01.096Z,31.53
2022-12-17T10:33:25.226Z,31.47
2022-12-17T10:38:48.470Z,27.80
2022-12-17T10:44:09.197Z,30.30
2022-12-17T10:49:34.115Z,29.27
2022-12-17T10:54:56.163Z,28.67
2022-12-17T11:00:16.872Z,32.97
2022-12-17T11:05:45.162Z,32.37
2022-12-17T11:11:07.005Z,30.13
2022-12-17T11:16:39.243Z,29.93
2022-12-17T11:22:03.967Z,29.90
2022-12-17T11:27:31.954Z,30.13
2022-12-17T11:33:19.608Z,40.15
2022-12-17T11:38:51.748Z,30.03
2022-12-17T11:44:20.668Z,29.63
2022-12-17T11:49:52.536Z,26.87
2022-12-17T11:55:22.675Z,29.13
2022-12-17T12:01:07.996Z,28.90
2022-12-17T12:06:35.940Z,27.07
2022-12-17T12:12:04.457Z,26.00
2022-12-17T12:26:42.965Z,28.33
2022-12-17T12:32:15.821Z,26.10
2022-12-17T12:37:39.442Z,27.70
2022-12-17T12:43:09.323Z,25.13
2022-12-17T12:48:44.668Z,26.53
2022-12-17T12:54:15.983Z,25.77
2022-12-17T12:59:45.641Z,25.20
2022-12-17T13:05:12.925Z,27.20
2022-12-17T13:10:28.496Z,26.90
2022-12-17T13:15:39.020Z,27.60
2022-12-17T13:20:42.545Z,26.60
2022-12-17T13:25:47.766Z,27.07
2022-12-17T13:31:03.630Z,27.70
2022-12-17T13:36:14.307Z,25.80
2022-12-17T13:41:20.554Z,27.33
2022-12-17T13:46:28.772Z,25.70
2022-12-17T13:51:35.486Z,24.63
2022-12-17T13:56:38.769Z,27.80
2022-12-17T14:01:50.340Z,26.50
2022-12-17T14:06:55.264Z,27.57
2022-12-17T14:12:30.739Z,26.87
2022-12-17T14:17:41.771Z,25.97
2022-12-17T14:22:51.692Z,27.47
2022-12-17T14:28:00.512Z,26.73
2022-12-17T14:33:06.406Z,26.07
2022-12-17T14:38:37.441Z,26.77
2022-12-17T14:43:47.937Z,24.97
2022-12-17T14:49:02.631Z,26.27
2022-12-17T14:54:20.298Z,24.70
2022-12-17T14:59:31.180Z,24.17
2022-12-17T15:04:38.701Z,25.47
2022-12-17T15:09:42.888Z,26.40
2022-12-17T15:14:46.681Z,23.70
2022-12-17T15:19:55.982Z,24.23
2022-12-17T15:24:59.431Z,26.20
2022-12-17T15:30:02.503Z,25.50
2022-12-17T15:35:09.441Z,26.80
2022-12-17T15:40:13.174Z,27.00
2022-12-17T15:45:16.634Z,28.83
2022-12-17T15:50:21.226Z,28.07
2022-12-17T15:55:24.385Z,27.03
2022-12-17T16:00:27.727Z,24.80
2022-12-17T16:05:32.207Z,23.93
2022-12-17T16:10:35.516Z,24.67
2022-12-17T16:15:38.732Z,25.10
2022-12-17T16:20:43.591Z,25.53
2022-12-17T16:25:46.802Z,25.00
2022-12-17T16:30:59.182Z,27.30
2022-12-17T16:36:04.237Z,28.97
2022-12-17T16:41:07.355Z,30.00
2022-12-17T16:46:29.078Z,28.57
2022-12-17T16:51:35.096Z,28.97
2022-12-17T16:56:43.967Z,30.93
2022-12-17T17:01:49.628Z,26.53
2022-12-17T17:06:55.519Z,28.13
2022-12-17T17:11:59.844Z,28.33
2022-12-17T17:17:03.048Z,27.00
2022-12-17T17:22:07.558Z,25.90
2022-12-17T17:27:10.724Z,29.43
2022-12-17T17:32:14.234Z,26.03
2022-12-17T17:37:19.382Z,27.13
2022-12-17T17:42:22.407Z,27.23
2022-12-17T17:47:25.583Z,28.77
2022-12-17T17:52:30.045Z,27.43
2022-12-17T17:57:33.024Z,26.77
2022-12-17T18:02:36.290Z,24.70
2022-12-17T18:07:40.994Z,26.77
2022-12-17T18:13:01.318Z,24.53
2022-12-17T18:18:07.346Z,25.83
2022-12-17T18:23:14.035Z,26.53
2022-12-17T18:28:17.205Z,27.33
2022-12-17T18:33:20.194Z,25.10
2022-12-17T18:38:24.718Z,27.50
2022-12-17T18:43:27.811Z,27.37
2022-12-17T18:48:30.880Z,27.40
2022-12-17T18:53:35.894Z,27.47
2022-12-17T18:58:39.099Z,29.13
2022-12-17T19:03:42.260Z,27.13
2022-12-17T19:08:47.151Z,24.47
2022-12-17T19:13:51.576Z,24.27
2022-12-17T19:18:56.964Z,26.90
2022-12-17T19:24:07.334Z,25.60
2022-12-17T19:29:13.041Z,31.67
2022-12-17T19:34:17.931Z,29.43
2022-12-17T19:39:22.774Z,27.70
2022-12-17T19:44:27.150Z,27.30
2022-12-17T19:49:30.513Z,28.17
2022-12-17T19:54:35.622Z,28.20
2022-12-17T19:59:38.897Z,29.23
2022-12-17T20:04:42.140Z,27.73
2022-12-17T20:09:46.565Z,28.10
2022-12-17T20:14:49.851Z,28.27
2022-12-17T20:19:53.878Z,27.90
2022-12-17T20:25:01.533Z,28.37
2022-12-17T20:30:05.941Z,30.27
2022-12-17T20:35:12.599Z,28.77
2022-12-17T20:40:23.531Z,25.00
2022-12-17T20:45:26.747Z,24.93
2022-12-17T20:50:34.712Z,28.30
2022-12-17T20:55:39.030Z,23.20
2022-12-17T21:00:43.356Z,27.77
2022-12-17T21:05:46.573Z,25.20
2022-12-17T21:10:59.079Z,25.00
2022-12-17T21:16:07.490Z,27.33
2022-12-17T21:21:14.055Z,27.37
2022-12-17T21:26:21.712Z,25.40
2022-12-17T21:31:27.473Z,25.40
2022-12-17T21:36:33.510Z,23.90
2022-12-17T21:41:44.536Z,25.03
2022-12-17T21:46:50.314Z,25.00
2022-12-17T21:51:53.668Z,25.60
2022-12-17T21:56:58.439Z,25.50
2022-12-17T22:02:01.602Z,26.93
2022-12-17T22:07:17.387Z,26.40
2022-12-17T22:12:44.801Z,24.63
2022-12-17T22:17:47.832Z,25.87
2022-12-17T22:22:51.483Z,25.80
2022-12-17T22:27:56.929Z,25.63
2022-12-17T22:33:14.783Z,26.40
2022-12-17T22:43:07.644Z,26.17
2022-12-17T22:44:43.761Z,26.80
2022-12-17T22:49:16.041Z,24.77
2022-12-17T22:54:19.304Z,25.07
2022-12-17T22:59:24.422Z,25.97
2022-12-17T23:04:27.669Z,25.13
2022-12-17T23:09:31.116Z,23.67
2022-12-17T23:14:35.634Z,23.60
2022-12-17T23:19:39.100Z,25.87
2022-12-17T23:24:43.973Z,23.60
2022-12-17T23:29:48.477Z,24.80
2022-12-17T23:34:51.588Z,25.73
2022-12-17T23:39:54.686Z,24.63
2022-12-17T23:44:59.095Z,26.00
2022-12-17T23:50:04.204Z,24.83
2022-12-17T23:55:08.595Z,24.27
